Time;durP1;ratioP1;P1;durP2;ratioP2;P2;SDS_P1;SDS_P2;PMS_P1;PMS_P2;Temp;Humidity;BMP_temperature;BMP_pressure;BME280_temperature;BME280_humidity;BME280_pressure;Samples;Min_cycle;Max_cycle;Signal;HPM_P1;HPM_P2
2023/07/10 00:00:06;;;;;;;6.27;5.70;;;21.70;95.10;;;;;;5014834;28;20452;-64
2023/07/10 00:02:33;;;;;;;6.87;6.33;;;21.60;95.20;;;;;;5014061;28;20455;-63
2023/07/10 00:05:00;;;;;;;6.10;5.60;;;21.60;95.30;;;;;;5014999;28;21035;-63
2023/07/10 00:07:27;;;;;;;7.27;6.67;;;21.60;95.30;;;;;;5013305;28;20463;-64
2023/07/10 00:09:54;;;;;;;6.73;5.77;;;21.60;95.40;;;;;;5014406;28;21132;-66
2023/07/10 00:12:23;;;;;;;6.13;5.53;;;21.50;95.70;;;;;;5015121;28;20495;-66
2023/07/10 00:14:50;;;;;;;6.53;5.90;;;21.50;95.90;;;;;;5014948;28;20466;-65
2023/07/10 00:17:17;;;;;;;6.73;6.10;;;21.40;96.00;;;;;;5014520;28;20453;-66
2023/07/10 00:19:43;;;;;;;6.27;5.87;;;21.40;96.00;;;;;;5014859;28;20459;-66
2023/07/10 00:22:10;;;;;;;6.10;5.70;;;21.40;96.30;;;;;;5014724;28;20446;-65
2023/07/10 00:24:37;;;;;;;6.10;5.60;;;21.40;96.30;;;;;;5014608;28;20565;-66
2023/07/10 00:27:11;;;;;;;7.73;5.10;;;21.40;96.40;;;;;;5014699;28;20463;-66
2023/07/10 00:29:39;;;;;;;6.73;6.13;;;21.30;96.50;;;;;;5014828;28;20481;-66
2023/07/10 00:32:12;;;;;;;6.37;5.80;;;21.30;96.70;;;;;;5014694;28;20954;-65
2023/07/10 00:34:39;;;;;;;7.40;6.60;;;21.30;96.90;;;;;;5014279;28;20473;-66
2023/07/10 00:37:06;;;;;;;6.23;5.53;;;21.30;97.00;;;;;;5013298;28;20462;-66
2023/07/10 00:39:36;;;;;;;6.53;6.03;;;21.30;97.30;;;;;;5014578;28;20456;-66
2023/07/10 00:42:11;;;;;;;6.77;6.07;;;21.30;97.40;;;;;;5014786;28;20451;-65
2023/07/10 00:44:43;;;;;;;7.20;6.50;;;21.30;97.50;;;;;;5014519;28;20467;-66
2023/07/10 00:47:18;;;;;;;6.87;6.27;;;21.30;97.60;;;;;;5014328;28;20450;-66
2023/07/10 00:49:49;;;;;;;6.97;5.97;;;21.30;97.80;;;;;;5014615;28;20539;-66
2023/07/10 00:52:20;;;;;;;6.50;6.00;;;21.30;97.80;;;;;;5014611;28;20519;-65
2023/07/10 00:54:51;;;;;;;7.13;6.10;;;21.30;97.70;;;;;;5014382;28;20469;-66
2023/07/10 00:57:20;;;;;;;5.77;5.37;;;21.30;97.80;;;;;;5013894;28;20457;-65
2023/07/10 00:59:50;;;;;;;7.03;6.10;;;21.30;97.90;;;;;;5014164;28;20485;-66
2023/07/10 01:02:23;;;;;;;6.77;6.27;;;21.30;97.90;;;;;;5014336;28;20915;-66
2023/07/10 01:04:55;;;;;;;6.67;6.10;;;21.20;97.90;;;;;;5014138;28;20484;-66
2023/07/10 01:07:24;;;;;;;6.20;5.60;;;21.20;98.00;;;;;;5013877;28;20817;-66
2023/07/10 01:09:54;;;;;;;10.10;6.20;;;21.20;98.20;;;;;;5013562;28;20835;-65
2023/07/10 01:12:22;;;;;;;6.00;5.50;;;21.20;98.30;;;;;;5014004;28;21066;-66
2023/07/10 01:14:50;;;;;;;6.20;5.60;;;21.10;98.40;;;;;;5014229;28;20476;-66
2023/07/10 01:17:17;;;;;;;6.67;5.63;;;21.10;98.50;;;;;;5013672;28;20832;-65
2023/07/10 01:19:45;;;;;;;6.33;5.83;;;21.00;98.80;;;;;;5014071;28;20460;-65
2023/07/10 01:22:15;;;;;;;6.20;5.60;;;21.00;98.90;;;;;;5013700;28;20455;-66
2023/07/10 01:24:42;;;;;;;6.93;6.33;;;21.00;99.00;;;;;;5013658;28;20477;-66
2023/07/10 01:27:13;;;;;;;7.97;6.67;;;21.00;99.20;;;;;;5035056;23;20496;-63
2023/07/10 01:29:48;;;;;;;5.57;5.17;;;20.90;99.10;;;;;;5013319;28;20450;-63
2023/07/10 01:32:17;;;;;;;6.27;5.67;;;20.90;99.30;;;;;;5012650;28;20458;-62
2023/07/10 01:34:48;;;;;;;6.10;5.60;;;20.90;99.30;;;;;;5013062;28;20955;-62
2023/07/10 01:37:16;;;;;;;7.33;6.63;;;20.90;99.50;;;;;;5012852;28;20484;-63
2023/07/10 01:39:45;;;;;;;6.30;5.80;;;20.90;99.40;;;;;;5013369;28;20459;-63
2023/07/10 01:42:12;;;;;;;7.90;7.20;;;20.90;99.50;;;;;;5013363;28;20459;-63
2023/07/10 01:44:42;;;;;;;6.60;6.10;;;20.90;99.40;;;;;;5013243;28;20936;-63
2023/07/10 01:47:10;;;;;;;7.60;6.77;;;20.80;99.30;;;;;;5012919;28;20989;-63
2023/07/10 01:49:42;;;;;;;7.73;7.03;;;20.90;99.30;;;;;;5012628;28;20455;-63
2023/07/10 01:52:12;;;;;;;7.07;6.37;;;20.80;99.40;;;;;;5013280;28;20448;-62
2023/07/10 01:54:41;;;;;;;8.67;6.63;;;20.80;99.50;;;;;;5013307;28;20454;-64
2023/07/10 01:57:09;;;;;;;5.90;5.50;;;20.80;99.80;;;;;;5012689;28;20476;-63
2023/07/10 01:59:36;;;;;;;6.13;5.63;;;20.70;99.80;;;;;;5013132;28;20458;-63
2023/07/10 02:02:03;;;;;;;6.20;5.60;;;20.80;99.90;;;;;;5012415;28;20449;-63
2023/07/10 02:04:30;;;;;;;6.80;6.20;;;20.80;99.90;;;;;;5013285;28;20472;-64
2023/07/10 02:06:57;;;;;;;6.63;6.07;;;20.80;99.90;;;;;;5012175;28;20472;-63
2023/07/10 02:09:25;;;;;;;7.63;7.10;;;20.80;99.90;;;;;;5012313;28;20825;-63
2023/07/10 02:11:54;;;;;;;6.77;6.20;;;20.90;99.90;;;;;;5012614;28;20794;-63
2023/07/10 02:14:22;;;;;;;6.40;5.67;;;20.80;99.90;;;;;;5012641;28;20494;-63
2023/07/10 02:16:49;;;;;;;6.77;6.20;;;20.90;99.90;;;;;;5012010;28;20511;-63
2023/07/10 02:19:16;;;;;;;6.67;6.17;;;20.80;99.90;;;;;;5012713;28;20451;-62
2023/07/10 02:21:43;;;;;;;7.17;6.30;;;20.80;99.90;;;;;;5012413;28;21049;-63
2023/07/10 02:24:10;;;;;;;7.50;6.90;;;20.80;99.90;;;;;;5012532;28;20459;-62
2023/07/10 02:26:37;;;;;;;6.13;5.63;;;20.80;99.90;;;;;;5011826;28;20479;-63
2023/07/10 02:29:05;;;;;;;7.13;6.43;;;20.70;99.90;;;;;;5012674;28;20456;-63
2023/07/10 02:31:32;;;;;;;7.00;5.90;;;20.70;99.90;;;;;;5012543;28;20535;-64
2023/07/10 02:33:59;;;;;;;7.23;6.70;;;20.70;99.90;;;;;;5012419;28;20486;-63
2023/07/10 02:36:28;;;;;;;7.73;7.03;;;20.70;99.90;;;;;;5012043;28;20940;-63
2023/07/10 02:38:55;;;;;;;6.20;5.70;;;20.70;99.90;;;;;;5012420;28;20848;-63
2023/07/10 02:41:22;;;;;;;7.40;6.70;;;20.70;99.90;;;;;;5012294;28;20465;-63
2023/07/10 02:43:49;;;;;;;6.83;6.33;;;20.70;99.90;;;;;;5012232;28;20441;-63
2023/07/10 02:46:17;;;;;;;7.33;6.73;;;20.70;99.90;;;;;;5011640;28;20450;-64
2023/07/10 02:48:44;;;;;;;6.37;5.93;;;20.60;99.90;;;;;;5012154;28;20487;-63
2023/07/10 02:51:11;;;;;;;7.43;6.80;;;20.60;99.90;;;;;;5012551;28;20539;-63
2023/07/10 02:53:39;;;;;;;8.27;7.57;;;20.60;99.90;;;;;;5011995;28;20875;-64
2023/07/10 02:56:06;;;;;;;8.13;7.43;;;20.60;99.90;;;;;;5011968;28;20478;-62
2023/07/10 02:58:33;;;;;;;7.40;6.70;;;20.50;99.90;;;;;;5012175;28;20827;-63
2023/07/10 03:01:01;;;;;;;7.33;6.73;;;20.50;99.90;;;;;;5012190;28;20453;-63
2023/07/10 03:03:30;;;;;;;7.00;6.40;;;20.40;99.90;;;;;;5011850;28;20956;-63
2023/07/10 03:05:58;;;;;;;7.60;6.97;;;20.40;99.90;;;;;;5011745;28;20452;-63
2023/07/10 03:08:26;;;;;;;7.80;7.00;;;20.40;99.90;;;;;;5011062;28;20999;-63
2023/07/10 03:10:59;;;;;;;7.90;7.07;;;20.40;99.90;;;;;;5011743;28;20963;-63
2023/07/10 03:13:26;;;;;;;6.93;6.43;;;20.30;99.90;;;;;;5010944;28;21042;-63
2023/07/10 03:16:00;;;;;;;7.13;6.53;;;20.30;99.90;;;;;;5011029;28;20457;-62
2023/07/10 03:18:29;;;;;;;7.27;6.67;;;20.20;99.90;;;;;;5011769;28;20474;-63
2023/07/10 03:20:56;;;;;;;9.03;6.97;;;20.20;99.90;;;;;;5011769;28;20980;-63
2023/07/10 03:23:23;;;;;;;6.60;6.00;;;20.30;99.90;;;;;;5011862;28;20489;-63
2023/07/10 03:25:50;;;;;;;9.50;7.27;;;20.20;99.90;;;;;;5011421;28;20457;-64
2023/07/10 03:28:16;;;;;;;7.03;6.33;;;20.20;99.90;;;;;;5011338;28;20476;-62
2023/07/10 03:30:43;;;;;;;7.17;6.67;;;20.20;99.90;;;;;;5011542;28;20952;-63
2023/07/10 03:33:12;;;;;;;7.30;6.90;;;20.10;99.90;;;;;;5011736;28;20505;-63
2023/07/10 03:35:41;;;;;;;7.57;6.80;;;20.10;99.90;;;;;;5011660;28;20451;-63
2023/07/10 03:38:08;;;;;;;8.23;7.50;;;20.10;99.90;;;;;;5011196;28;20475;-63
2023/07/10 03:40:35;;;;;;;9.17;6.90;;;20.00;99.90;;;;;;5011296;28;20462;-63
2023/07/10 03:43:02;;;;;;;8.63;7.90;;;20.10;99.90;;;;;;5011579;28;20832;-63
2023/07/10 03:45:30;;;;;;;8.97;6.30;;;20.10;99.90;;;;;;5011192;28;20538;-63
2023/07/10 03:47:57;;;;;;;10.17;6.77;;;20.00;99.90;;;;;;5011032;28;20470;-62
2023/07/10 03:50:24;;;;;;;8.17;7.43;;;20.00;99.90;;;;;;5011283;28;20460;-63
2023/07/10 03:52:52;;;;;;;8.27;7.53;;;20.00;99.90;;;;;;5011332;28;20453;-62
2023/07/10 03:55:19;;;;;;;7.47;6.90;;;20.00;99.90;;;;;;5011184;28;20891;-63
2023/07/10 03:57:45;;;;;;;7.70;7.00;;;20.10;99.90;;;;;;5010662;28;21057;-63
2023/07/10 04:00:13;;;;;;;7.90;7.20;;;20.10;99.90;;;;;;5011209;28;20422;-64
2023/07/10 04:02:40;;;;;;;8.57;7.77;;;20.00;99.90;;;;;;5011471;28;20544;-63
2023/07/10 04:05:07;;;;;;;7.03;6.53;;;20.10;99.90;;;;;;5010958;28;20443;-63
2023/07/10 04:07:34;;;;;;;8.03;6.60;;;20.00;99.90;;;;;;5010888;28;20481;-63
2023/07/10 04:10:03;;;;;;;7.73;7.20;;;20.00;99.90;;;;;;5010694;28;20981;-63
2023/07/10 04:12:30;;;;;;;7.77;7.00;;;20.10;99.90;;;;;;5011150;28;20436;-63
2023/07/10 04:14:57;;;;;;;9.30;7.80;;;20.10;99.90;;;;;;5010953;28;20454;-63
2023/07/10 04:17:23;;;;;;;6.10;5.60;;;20.20;99.90;;;;;;5010828;28;20495;-62
2023/07/10 04:19:50;;;;;;;8.03;7.27;;;20.20;99.90;;;;;;5011180;28;20538;-63
2023/07/10 04:22:17;;;;;;;9.43;7.47;;;20.30;99.90;;;;;;5010961;28;20451;-63
2023/07/10 04:24:44;;;;;;;7.80;7.00;;;20.30;99.90;;;;;;5012719;28;20579;-63
2023/07/10 04:27:12;;;;;;;8.23;7.53;;;20.40;99.90;;;;;;5014388;28;20502;-65
2023/07/10 04:29:39;;;;;;;7.23;6.33;;;20.40;99.90;;;;;;5014637;28;20455;-63
2023/07/10 04:32:09;;;;;;;8.13;7.43;;;20.40;99.90;;;;;;5014851;28;20455;-63
2023/07/10 04:34:36;;;;;;;7.53;6.70;;;20.40;99.90;;;;;;5014595;28;20453;-63
2023/07/10 04:37:02;;;;;;;7.37;6.77;;;20.40;99.90;;;;;;5013970;28;20981;-63
2023/07/10 04:39:29;;;;;;;8.10;7.20;;;20.40;99.90;;;;;;5014703;28;20536;-64
2023/07/10 04:41:56;;;;;;;8.00;6.90;;;20.50;99.90;;;;;;5014589;28;20551;-62
2023/07/10 04:44:24;;;;;;;7.50;6.93;;;20.50;99.90;;;;;;5014223;28;20932;-64
2023/07/10 04:46:51;;;;;;;8.20;7.40;;;20.50;99.90;;;;;;5014296;28;20480;-64
2023/07/10 04:49:19;;;;;;;8.40;7.20;;;20.50;99.90;;;;;;5014099;28;20461;-63
2023/07/10 04:51:46;;;;;;;6.97;6.47;;;20.50;99.90;;;;;;5014450;28;20873;-63
2023/07/10 04:54:13;;;;;;;7.10;6.60;;;20.50;99.90;;;;;;5014054;28;20444;-63
2023/07/10 04:56:40;;;;;;;8.20;7.40;;;20.50;99.90;;;;;;5013733;28;20474;-63
2023/07/10 04:59:06;;;;;;;8.60;7.90;;;20.50;99.90;;;;;;5014324;28;20447;-62
2023/07/10 05:01:35;;;;;;;8.53;7.57;;;20.50;99.90;;;;;;5014164;28;20450;-63
2023/07/10 05:04:02;;;;;;;7.90;7.30;;;20.50;99.90;;;;;;5013923;28;20486;-63
2023/07/10 05:06:30;;;;;;;10.70;8.20;;;20.50;99.90;;;;;;5013529;28;20476;-63
2023/07/10 05:08:59;;;;;;;9.10;8.10;;;20.60;99.90;;;;;;5012955;28;20550;-63
2023/07/10 05:11:27;;;;;;;8.20;7.60;;;20.70;99.90;;;;;;5013989;28;20448;-63
2023/07/10 05:13:55;;;;;;;9.43;8.57;;;20.70;99.90;;;;;;5013728;28;20456;-63
2023/07/10 05:16:22;;;;;;;7.50;6.90;;;20.80;99.90;;;;;;5013689;28;20553;-64
2023/07/10 05:18:51;;;;;;;8.23;7.53;;;20.80;99.90;;;;;;5013837;28;20451;-63
2023/07/10 05:21:18;;;;;;;7.20;6.70;;;20.90;99.90;;;;;;5013551;28;20510;-63
2023/07/10 05:23:45;;;;;;;8.30;7.70;;;21.10;99.90;;;;;;5013666;28;20491;-63
2023/07/10 05:26:13;;;;;;;8.33;7.63;;;21.20;99.90;;;;;;5013169;28;20815;-63
2023/07/10 05:28:40;;;;;;;7.90;7.30;;;21.30;99.90;;;;;;5013542;28;20544;-63
2023/07/10 05:31:09;;;;;;;8.13;7.53;;;21.40;99.90;;;;;;5013424;28;20455;-63
2023/07/10 05:33:38;;;;;;;7.87;7.17;;;21.50;99.90;;;;;;5013485;28;20450;-64
2023/07/10 05:36:10;;;;;;;8.10;7.37;;;21.60;99.90;;;;;;5011968;28;20453;-64
2023/07/10 05:38:37;;;;;;;9.20;8.30;;;21.70;99.90;;;;;;5013683;28;20524;-64
2023/07/10 05:41:04;;;;;;;8.00;7.40;;;21.80;99.90;;;;;;5013270;28;20533;-62
2023/07/10 05:43:32;;;;;;;8.70;7.90;;;22.00;99.90;;;;;;5013480;28;20453;-63
2023/07/10 05:45:59;;;;;;;7.43;6.83;;;22.10;99.90;;;;;;5013175;28;20458;-63
2023/07/10 05:48:26;;;;;;;10.00;8.97;;;22.40;99.90;;;;;;5013167;28;20476;-63
2023/07/10 05:50:53;;;;;;;7.90;7.23;;;22.60;99.90;;;;;;5013223;28;20450;-63
2023/07/10 05:53:22;;;;;;;8.53;7.67;;;22.80;99.90;;;;;;5013293;28;20469;-64
2023/07/10 05:55:50;;;;;;;7.80;7.17;;;23.00;99.90;;;;;;5012938;28;20450;-63
2023/07/10 05:58:17;;;;;;;9.17;8.50;;;23.30;99.90;;;;;;5013011;28;20550;-63
2023/07/10 06:00:47;;;;;;;8.70;7.83;;;23.50;99.90;;;;;;5014610;28;20836;-62
2023/07/10 06:03:13;;;;;;;8.83;8.07;;;23.70;99.90;;;;;;5031833;28;20827;-63
2023/07/10 06:05:40;;;;;;;8.47;7.77;;;23.80;99.90;;;;;;5032552;28;20832;-63
2023/07/10 06:08:09;;;;;;;8.97;8.07;;;23.90;99.90;;;;;;5031551;28;20826;-63
2023/07/10 06:10:38;;;;;;;8.50;7.70;;;24.00;99.90;;;;;;5032329;28;20493;-63
2023/07/10 06:13:04;;;;;;;8.30;7.50;;;24.10;99.90;;;;;;5032612;28;20457;-63
2023/07/10 06:15:31;;;;;;;8.77;8.07;;;24.10;99.90;;;;;;5032367;28;20843;-64
2023/07/10 06:17:58;;;;;;;9.17;8.47;;;24.20;99.60;;;;;;5032098;28;20474;-63
2023/07/10 06:20:26;;;;;;;7.80;7.17;;;24.30;99.60;;;;;;5032382;28;20903;-63
2023/07/10 06:22:53;;;;;;;8.80;8.10;;;24.30;99.30;;;;;;5032287;28;20459;-63
2023/07/10 06:25:19;;;;;;;9.03;8.20;;;24.40;99.30;;;;;;5032185;28;20493;-64
2023/07/10 06:27:48;;;;;;;7.97;7.37;;;24.50;99.10;;;;;;5031773;28;20488;-63
2023/07/10 06:30:16;;;;;;;7.83;7.13;;;24.60;99.50;;;;;;5032160;28;20885;-62
2023/07/10 06:32:43;;;;;;;7.90;7.30;;;24.70;99.20;;;;;;5031925;28;20455;-63
2023/07/10 06:35:12;;;;;;;9.03;8.13;;;24.70;98.80;;;;;;5031976;28;20451;-64
2023/07/10 06:37:39;;;;;;;8.17;7.50;;;24.70;98.80;;;;;;5031528;28;20475;-63
2023/07/10 06:40:10;;;;;;;7.93;7.23;;;24.70;99.00;;;;;;5032116;28;20456;-63
2023/07/10 06:42:37;;;;;;;8.70;7.97;;;24.70;98.90;;;;;;5032205;28;20526;-63
2023/07/10 06:45:06;;;;;;;8.63;7.93;;;24.70;98.80;;;;;;5014180;28;20482;-64
2023/07/10 06:47:40;;;;;;;13.37;7.23;;;24.70;99.00;;;;;;5011318;28;20561;-65
2023/07/10 06:50:08;;;;;;;9.23;8.43;;;24.70;98.90;;;;;;5001859;28;20479;-64
2023/07/10 06:52:35;;;;;;;8.67;7.87;;;24.70;98.60;;;;;;5011892;28;20866;-65
2023/07/10 06:55:02;;;;;;;8.50;7.80;;;24.70;98.80;;;;;;5012015;28;20447;-65
2023/07/10 06:57:29;;;;;;;11.47;8.40;;;24.70;98.40;;;;;;5010943;28;20482;-65
2023/07/10 06:59:56;;;;;;;8.77;8.00;;;24.70;98.80;;;;;;5012141;28;20467;-65
2023/07/10 07:02:24;;;;;;;9.60;8.70;;;24.80;98.80;;;;;;5011648;28;20546;-64
2023/07/10 07:04:51;;;;;;;8.47;7.60;;;25.00;98.50;;;;;;5011841;28;20486;-65
2023/07/10 07:07:17;;;;;;;8.93;8.03;;;25.20;98.00;;;;;;5011318;28;20470;-65
2023/07/10 07:09:44;;;;;;;8.80;7.93;;;25.40;97.90;;;;;;5012132;28;20455;-65
2023/07/10 07:12:12;;;;;;;8.63;7.93;;;25.50;97.80;;;;;;5011691;28;20456;-65
2023/07/10 07:14:39;;;;;;;9.27;8.23;;;25.70;96.90;;;;;;5009511;28;20446;-65
2023/07/10 07:17:06;;;;;;;9.70;8.93;;;25.80;96.80;;;;;;5011402;28;20474;-65
2023/07/10 07:19:35;;;;;;;9.27;8.13;;;26.00;96.60;;;;;;5010962;28;20819;-65
2023/07/10 07:22:03;;;;;;;8.90;8.20;;;26.10;96.30;;;;;;5011521;28;20483;-64
2023/07/10 07:24:30;;;;;;;13.83;10.13;;;26.30;96.30;;;;;;5010909;28;20576;-65
2023/07/10 07:26:56;;;;;;;10.40;9.50;;;26.50;96.00;;;;;;5010571;28;20492;-65
2023/07/10 07:29:23;;;;;;;9.17;8.40;;;26.60;95.50;;;;;;5010973;28;20457;-65
2023/07/10 07:31:50;;;;;;;10.87;9.80;;;26.70;95.20;;;;;;5011152;28;20452;-65
2023/07/10 07:34:17;;;;;;;10.10;9.40;;;26.90;95.10;;;;;;5010808;28;20455;-65
2023/07/10 07:36:45;;;;;;;9.53;8.53;;;27.00;94.80;;;;;;5010942;28;20483;-65
2023/07/10 07:39:12;;;;;;;9.73;9.03;;;27.10;94.10;;;;;;5010754;28;20448;-66
2023/07/10 07:41:39;;;;;;;10.30;9.40;;;27.20;94.00;;;;;;5011119;28;20891;-65
2023/07/10 07:44:06;;;;;;;10.00;9.20;;;27.20;93.90;;;;;;5032678;23;20595;-65
2023/07/10 07:46:33;;;;;;;9.80;9.10;;;27.20;93.70;;;;;;5010696;28;20459;-65
2023/07/10 07:49:00;;;;;;;10.53;9.17;;;27.20;93.90;;;;;;5011546;28;20457;-66
2023/07/10 07:51:27;;;;;;;9.90;8.93;;;27.30;94.20;;;;;;5011428;28;20543;-65
2023/07/10 07:54:04;;;;;;;10.60;9.70;;;27.40;93.80;;;;;;5011492;28;20555;-66
2023/07/10 07:56:31;;;;;;;9.60;8.90;;;27.50;93.60;;;;;;5008171;28;20440;-65
2023/07/10 07:58:58;;;;;;;10.37;9.50;;;27.60;93.30;;;;;;5012571;28;20823;-66
2023/07/10 08:01:25;;;;;;;9.97;9.07;;;27.70;93.30;;;;;;5015392;28;20460;-66
2023/07/10 08:03:52;;;;;;;10.63;9.93;;;27.80;93.00;;;;;;5013617;28;20464;-66
2023/07/10 08:06:19;;;;;;;10.73;9.83;;;27.90;92.90;;;;;;4998027;28;20604;-66
2023/07/10 08:08:46;;;;;;;9.90;9.10;;;28.00;92.70;;;;;;5014471;28;20531;-66
2023/07/10 08:11:17;;;;;;;9.37;8.60;;;28.10;92.80;;;;;;5006689;28;20447;-65
2023/07/10 08:13:44;;;;;;;10.03;9.33;;;28.10;92.30;;;;;;5015174;28;20480;-65
2023/07/10 08:16:11;;;;;;;10.93;10.10;;;28.10;92.50;;;;;;5014124;28;20448;-65
2023/07/10 08:18:38;;;;;;;9.10;8.40;;;28.10;92.40;;;;;;5014327;28;20453;-66
2023/07/10 08:21:07;;;;;;;10.40;9.60;;;28.20;92.50;;;;;;5015174;28;20519;-65
2023/07/10 08:23:34;;;;;;;10.23;9.43;;;28.20;92.70;;;;;;5015006;28;20479;-65
2023/07/10 08:26:02;;;;;;;10.67;9.73;;;28.20;92.50;;;;;;5014166;28;20488;-68
2023/07/10 08:28:30;;;;;;;9.80;8.90;;;28.30;92.60;;;;;;5003820;28;20880;-66
2023/07/10 08:30:57;;;;;;;11.17;10.17;;;28.50;92.50;;;;;;5024420;28;20951;-66
2023/07/10 08:33:24;;;;;;;11.47;10.47;;;28.70;92.10;;;;;;5016359;28;20475;-67
2023/07/10 08:35:55;;;;;;;11.93;10.93;;;28.70;92.00;;;;;;5025085;28;20938;-66
2023/07/10 08:38:22;;;;;;;11.50;10.60;;;28.70;91.90;;;;;;5024226;28;20846;-65
2023/07/10 08:40:51;;;;;;;10.07;9.27;;;28.70;92.20;;;;;;5020727;28;20455;-66
2023/07/10 08:43:26;;;;;;;10.87;10.10;;;28.60;92.60;;;;;;5026420;28;20495;-65
2023/07/10 08:46:02;;;;;;;12.50;11.40;;;28.70;91.90;;;;;;5022056;28;20487;-66
2023/07/10 08:48:33;;;;;;;10.70;9.63;;;28.80;92.00;;;;;;5020362;28;20459;-65
2023/07/10 08:51:14;;;;;;;10.30;9.40;;;28.80;91.70;;;;;;5023913;28;20999;-66
2023/07/10 08:53:46;;;;;;;10.33;9.63;;;28.80;91.70;;;;;;5010145;28;20502;-66
2023/07/10 08:56:23;;;;;;;12.23;11.07;;;28.90;91.70;;;;;;5027891;28;20441;-66
2023/07/10 08:58:50;;;;;;;10.67;9.87;;;29.00;91.80;;;;;;5021339;28;20457;-64
2023/07/10 09:01:29;;;;;;;10.67;9.80;;;29.00;91.30;;;;;;5021230;28;20454;-64
2023/07/10 09:03:59;;;;;;;10.37;9.57;;;28.90;91.70;;;;;;5011790;28;20472;-65
2023/07/10 09:06:39;;;;;;;10.57;9.77;;;28.90;91.20;;;;;;5015540;28;20496;-65
2023/07/10 09:09:16;;;;;;;10.47;9.77;;;28.80;91.50;;;;;;5016143;28;20453;-66
2023/07/10 09:11:43;;;;;;;10.90;10.10;;;28.80;91.30;;;;;;5020699;28;20452;-67
2023/07/10 09:14:24;;;;;;;10.43;9.40;;;28.90;91.30;;;;;;5021345;28;20471;-66
2023/07/10 09:16:54;;;;;;;11.03;10.10;;;28.90;91.10;;;;;;5020266;28;20437;-65
2023/07/10 09:19:23;;;;;;;11.27;10.27;;;29.00;91.10;;;;;;5012273;28;20452;-67
2023/07/10 09:21:50;;;;;;;12.53;11.43;;;29.20;91.30;;;;;;5023423;28;20449;-67
2023/07/10 09:24:19;;;;;;;11.63;10.47;;;29.30;90.90;;;;;;5015182;28;20499;-66
2023/07/10 09:26:46;;;;;;;11.10;10.20;;;29.40;90.30;;;;;;5022289;28;20530;-66
2023/07/10 09:29:29;;;;;;;12.30;11.20;;;29.50;90.40;;;;;;5027045;28;20833;-66
2023/07/10 09:32:03;;;;;;;11.50;10.70;;;29.70;90.40;;;;;;5013476;28;20558;-66
2023/07/10 09:34:32;;;;;;;12.00;11.20;;;29.70;90.00;;;;;;5016781;28;20469;-66
2023/07/10 09:37:00;;;;;;;12.60;11.60;;;29.70;89.70;;;;;;5023814;28;20452;-65
2023/07/10 09:39:28;;;;;;;12.57;11.60;;;29.70;90.20;;;;;;5024223;28;20493;-66
2023/07/10 09:41:58;;;;;;;13.70;12.70;;;29.70;88.40;;;;;;5032467;28;20449;-65
2023/07/10 09:44:33;;;;;;;15.13;13.93;;;29.60;88.70;;;;;;5016811;28;20484;-65
2023/07/10 09:47:08;;;;;;;13.93;12.83;;;29.50;89.50;;;;;;4993196;28;20494;-65
2023/07/10 09:49:40;;;;;;;14.83;13.73;;;29.40;89.50;;;;;;4993649;28;20458;-67
2023/07/10 09:52:21;;;;;;;15.07;13.80;;;29.30;90.20;;;;;;4993405;28;20830;-65
2023/07/10 09:54:49;;;;;;;14.97;13.80;;;29.20;90.30;;;;;;4993329;28;20488;-66
2023/07/10 09:57:18;;;;;;;15.63;14.37;;;29.00;91.00;;;;;;5007006;28;20459;-66
2023/07/10 09:59:49;;;;;;;14.73;13.63;;;29.10;90.60;;;;;;5024599;28;20456;-66
2023/07/10 10:02:20;;;;;;;15.20;14.10;;;29.10;90.80;;;;;;5032777;28;20826;-66
2023/07/10 10:04:53;;;;;;;17.20;15.87;;;29.10;90.50;;;;;;5032691;28;20470;-66
2023/07/10 10:07:22;;;;;;;17.27;15.97;;;29.10;90.70;;;;;;5032199;28;20441;-66
2023/07/10 10:10:03;;;;;;;15.70;14.60;;;29.10;91.10;;;;;;5032241;28;20810;-66
2023/07/10 10:12:33;;;;;;;15.60;14.40;;;29.00;90.40;;;;;;5032664;28;20585;-66
2023/07/10 10:15:05;;;;;;;17.83;16.50;;;28.80;90.50;;;;;;5031944;28;20461;-65
2023/07/10 10:17:39;;;;;;;16.53;15.23;;;28.80;91.30;;;;;;5003817;28;21020;-66
2023/07/10 10:20:14;;;;;;;17.23;16.03;;;28.80;91.00;;;;;;5022655;28;20444;-66
2023/07/10 10:22:41;;;;;;;18.10;16.70;;;28.80;90.90;;;;;;5025394;28;20441;-66
2023/07/10 10:25:15;;;;;;;19.40;17.80;;;28.60;90.90;;;;;;5025726;28;20533;-66
2023/07/10 10:27:50;;;;;;;16.90;15.53;;;28.50;91.40;;;;;;5031047;28;20463;-66
2023/07/10 10:30:32;;;;;;;17.67;16.30;;;28.40;91.30;;;;;;5017135;28;20450;-66
2023/07/10 10:33:08;;;;;;;15.43;14.27;;;28.40;91.40;;;;;;5011893;28;20453;-67
2023/07/10 10:35:49;;;;;;;16.80;15.63;;;28.50;91.50;;;;;;4992191;28;20467;-67
2023/07/10 10:38:30;;;;;;;17.23;15.83;;;28.60;91.00;;;;;;4993688;28;21006;-67
2023/07/10 10:41:07;;;;;;;17.87;16.50;;;28.80;91.00;;;;;;5011926;28;20454;-66
2023/07/10 10:43:49;;;;;;;16.37;15.20;;;28.90;90.60;;;;;;5011605;28;20910;-67
2023/07/10 10:46:26;;;;;;;16.47;15.03;;;29.00;90.30;;;;;;5011119;28;20498;-67
2023/07/10 10:49:06;;;;;;;15.63;14.37;;;29.10;89.60;;;;;;5014596;28;20453;-66
2023/07/10 10:51:40;;;;;;;15.20;13.80;;;29.30;89.00;;;;;;5023276;28;20868;-65
2023/07/10 10:54:14;;;;;;;12.77;11.97;;;29.40;87.70;;;;;;5023230;28;20484;-65
2023/07/10 10:56:47;;;;;;;13.00;12.10;;;29.40;85.50;;;;;;5010945;28;20445;-66
2023/07/10 10:59:32;;;;;;;13.90;12.90;;;29.40;85.40;;;;;;5011322;28;20965;-65
2023/07/10 11:02:12;;;;;;;14.90;13.57;;;29.40;84.90;;;;;;5011573;28;20446;-65
2023/07/10 11:04:46;;;;;;;15.10;13.90;;;29.40;83.40;;;;;;5011332;28;20549;-65
2023/07/10 11:07:16;;;;;;;14.50;13.30;;;29.30;83.90;;;;;;5010881;28;20881;-64
2023/07/10 11:09:49;;;;;;;14.80;13.70;;;29.30;86.20;;;;;;5011501;28;20827;-65
2023/07/10 11:12:18;;;;;;;16.10;14.70;;;29.30;85.10;;;;;;5011402;28;21140;-65
2023/07/10 11:14:46;;;;;;;15.43;14.17;;;29.30;86.00;;;;;;5011303;28;20476;-65
2023/07/10 11:17:14;;;;;;;16.13;14.47;;;29.40;85.00;;;;;;5010900;28;20450;-65
2023/07/10 11:19:43;;;;;;;16.10;14.80;;;29.40;84.40;;;;;;5010991;28;20485;-65
2023/07/10 11:22:22;;;;;;;15.77;14.67;;;29.50;85.50;;;;;;5011161;28;20989;-65
2023/07/10 11:24:52;;;;;;;15.20;14.10;;;29.60;85.80;;;;;;5011053;28;20564;-66
2023/07/10 11:27:23;;;;;;;15.30;14.00;;;29.70;85.20;;;;;;5010957;28;20486;-65
2023/07/10 11:29:56;;;;;;;14.60;13.47;;;29.90;85.10;;;;;;5010941;28;20450;-66
2023/07/10 11:32:26;;;;;;;15.30;14.20;;;30.00;84.60;;;;;;5011154;28;20453;-67
2023/07/10 11:35:10;;;;;;;14.53;13.53;;;30.20;82.60;;;;;;5010278;28;20476;-65
2023/07/10 11:37:56;;;;;;;14.33;13.13;;;30.20;79.10;;;;;;5007380;28;20838;-67
2023/07/10 11:40:48;;;;;;;13.70;12.70;;;30.10;79.60;;;;;;5018650;28;20442;-66
2023/07/10 11:43:57;;;;;;;15.70;14.30;;;30.10;79.10;;;;;;4991841;28;20855;-66
2023/07/10 11:46:34;;;;;;;14.07;12.67;;;30.10;79.50;;;;;;5010584;28;20528;-66
2023/07/10 11:49:17;;;;;;;14.40;13.30;;;30.00;76.00;;;;;;5010839;28;20968;-66
2023/07/10 11:52:25;;;;;;;15.03;13.53;;;30.00;78.10;;;;;;5011257;28;20508;-66
2023/07/10 11:55:25;;;;;;;11.80;10.90;;;30.20;77.30;;;;;;5010811;28;20978;-65
2023/07/10 11:58:23;;;;;;;15.10;13.83;;;30.30;78.50;;;;;;4995751;28;20469;-66
2023/07/10 12:00:50;;;;;;;13.83;12.57;;;30.50;77.50;;;;;;5010849;28;20458;-67
2023/07/10 12:03:17;;;;;;;15.77;14.47;;;30.80;77.20;;;;;;5010525;28;20564;-66
2023/07/10 12:05:44;;;;;;;12.33;11.23;;;30.90;75.50;;;;;;4995488;28;20454;-66
2023/07/10 12:08:14;;;;;;;13.50;12.43;;;31.00;74.50;;;;;;4990623;28;20817;-67
2023/07/10 12:10:45;;;;;;;14.23;13.03;;;31.10;74.30;;;;;;5009605;28;20459;-66
2023/07/10 12:13:18;;;;;;;13.53;12.53;;;31.20;73.40;;;;;;5009989;28;20478;-67
2023/07/10 12:15:46;;;;;;;14.97;13.53;;;31.30;75.00;;;;;;5010070;28;20463;-64
2023/07/10 12:18:15;;;;;;;14.47;13.47;;;31.30;72.90;;;;;;5006541;28;20544;-66
2023/07/10 12:20:43;;;;;;;12.43;11.50;;;31.20;72.10;;;;;;5019927;28;20451;-66
2023/07/10 12:23:13;;;;;;;14.00;13.03;;;31.20;72.90;;;;;;5018973;28;20556;-66
2023/07/10 12:25:48;;;;;;;13.70;12.60;;;31.10;72.20;;;;;;5027980;28;20450;-66
2023/07/10 12:28:16;;;;;;;13.40;12.30;;;31.00;70.60;;;;;;5009714;28;20449;-66
2023/07/10 12:30:49;;;;;;;12.20;11.20;;;31.20;71.30;;;;;;5009802;28;20458;-67
2023/07/10 12:33:36;;;;;;;14.03;12.97;;;31.30;69.80;;;;;;5010134;28;20476;-66
2023/07/10 12:36:17;;;;;;;13.37;12.23;;;31.50;71.80;;;;;;5007092;28;20449;-66
2023/07/10 12:38:46;;;;;;;12.50;11.60;;;31.60;67.50;;;;;;5019492;28;20938;-67
2023/07/10 12:41:13;;;;;;;12.80;11.80;;;31.70;68.70;;;;;;5009904;28;20547;-68
2023/07/10 12:43:47;;;;;;;12.63;11.73;;;31.90;67.70;;;;;;5009693;28;20485;-66
2023/07/10 12:46:18;;;;;;;12.60;11.70;;;32.00;65.30;;;;;;5012564;28;20491;-67
2023/07/10 12:48:46;;;;;;;12.63;11.73;;;32.20;67.10;;;;;;5013211;28;20447;-66
2023/07/10 12:51:23;;;;;;;13.67;12.47;;;32.50;65.80;;;;;;5013688;28;20835;-66
2023/07/10 12:53:52;;;;;;;13.30;12.40;;;32.60;65.90;;;;;;5013814;28;20482;-67